Time;durP1;ratioP1;P1;durP2;ratioP2;P2;SDS_P1;SDS_P2;PMS_P1;PMS_P2;Temp;Humidity;BMP_temperature;BMP_pressure;BME280_temperature;BME280_humidity;BME280_pressure;Samples;Min_cycle;Max_cycle;Signal;HPM_P1;HPM_P2
2023/06/26 00:00:36;;;;;;;19.88;14.02;;;;;;;19.54;99.82;94401.13;5130330;27;20190;-75
2023/06/26 00:03:03;;;;;;;20.95;13.65;;;;;;;19.58;99.99;94404.63;5121857;27;20194;-75
2023/06/26 00:05:30;;;;;;;19.17;12.38;;;;;;;19.53;100.00;94402.28;5111286;28;20197;-75
2023/06/26 00:08:00;;;;;;;22.50;13.55;;;;;;;19.56;99.98;94406.97;5111495;28;20201;-75
2023/06/26 00:10:27;;;;;;;20.92;13.25;;;;;;;19.54;100.00;94401.13;5113065;27;20196;-74
2023/06/26 00:12:53;;;;;;;16.48;11.82;;;;;;;19.54;100.00;94403.88;5105950;28;20243;-75
2023/06/26 00:15:22;;;;;;;19.98;12.52;;;;;;;19.51;100.00;94399.13;5123375;27;20636;-74
2023/06/26 00:17:50;;;;;;;19.08;12.73;;;;;;;19.46;100.00;94397.53;5129593;27;20275;-75
2023/06/26 00:20:18;;;;;;;21.55;11.55;;;;;;;19.45;100.00;94400.66;5112547;27;20679;-75
2023/06/26 00:22:46;;;;;;;21.85;12.80;;;;;;;19.46;100.00;94396.72;5110803;28;20336;-75
2023/06/26 00:25:12;;;;;;;21.05;12.43;;;;;;;19.44;100.00;94394.38;5110841;28;20217;-75
2023/06/26 00:27:39;;;;;;;14.07;8.13;;;;;;;19.41;100.00;94394.34;5111031;28;20292;-74
2023/06/26 00:30:07;;;;;;;17.13;11.30;;;;;;;19.36;100.00;94394.75;5118524;27;20199;-75
2023/06/26 00:32:35;;;;;;;16.00;10.98;;;;;;;19.35;100.00;94393.19;5120239;27;20204;-75
2023/06/26 00:35:02;;;;;;;17.48;10.65;;;;;;;19.27;100.00;94394.34;5128841;27;20189;-75
2023/06/26 00:37:28;;;;;;;13.07;8.02;;;;;;;19.23;100.00;94379.81;5118426;27;20198;-71
2023/06/26 00:39:55;;;;;;;19.25;11.15;;;;;;;19.17;100.00;94384.88;5120911;27;20193;-75
2023/06/26 00:42:22;;;;;;;19.58;10.95;;;;;;;19.21;100.00;94384.91;5123622;27;20588;-75
2023/06/26 00:44:49;;;;;;;16.85;11.23;;;;;;;19.23;100.00;94388.06;5123798;27;20664;-75
2023/06/26 00:47:17;;;;;;;19.15;10.43;;;;;;;19.30;100.00;94388.84;5110216;28;20205;-75
2023/06/26 00:49:45;;;;;;;17.73;10.90;;;;;;;19.24;100.00;94382.19;5123922;27;20291;-75
2023/06/26 00:52:12;;;;;;;16.98;10.80;;;;;;;19.21;100.00;94380.19;5127893;27;20537;-75
2023/06/26 00:54:39;;;;;;;15.95;10.13;;;;;;;19.15;100.00;94374.28;5100136;27;20819;-75
2023/06/26 00:57:06;;;;;;;16.52;10.45;;;;;;;19.11;100.00;94379.00;5116429;27;20209;-74
2023/06/26 00:59:32;;;;;;;17.30;10.85;;;;;;;19.19;100.00;94377.06;5108257;27;20215;-75
2023/06/26 01:02:00;;;;;;;15.05;9.70;;;;;;;19.12;100.00;94383.31;5129515;27;20617;-75
2023/06/26 01:04:27;;;;;;;15.77;10.23;;;;;;;19.16;100.00;94375.88;5108920;28;20232;-73
2023/06/26 01:06:56;;;;;;;13.60;9.32;;;;;;;19.16;100.00;94367.63;5110233;28;20193;-74
2023/06/26 01:09:24;;;;;;;15.05;10.00;;;;;;;19.15;100.00;94368.78;5109815;28;20533;-76
2023/06/26 01:11:51;;;;;;;13.55;8.95;;;;;;;19.11;100.00;94362.53;5110349;28;20651;-75
2023/06/26 01:14:18;;;;;;;13.35;9.30;;;;;;;19.06;100.00;94370.34;5109987;28;20276;-75
2023/06/26 01:16:47;;;;;;;16.35;9.68;;;;;;;19.01;100.00;94357.78;5109960;28;20217;-75
2023/06/26 01:19:24;;;;;;;15.60;9.40;;;;;;;18.98;100.00;94355.03;5110327;28;20285;-74
2023/06/26 01:21:57;;;;;;;18.40;9.98;;;;;;;18.92;100.00;94362.84;5124001;28;20213;-75
2023/06/26 01:24:32;;;;;;;16.58;10.02;;;;;;;18.87;100.00;94349.50;5110142;28;20280;-75
2023/06/26 01:27:02;;;;;;;15.07;10.38;;;;;;;18.81;100.00;94345.56;5110353;28;20749;-74
2023/06/26 01:29:33;;;;;;;16.52;9.77;;;;;;;18.85;100.00;94343.63;5109557;28;20198;-74
2023/06/26 01:32:01;;;;;;;13.63;9.23;;;;;;;18.80;100.00;94352.22;5109726;28;20620;-75
2023/06/26 01:34:28;;;;;;;14.18;9.15;;;;;;;18.74;100.00;94349.06;5109975;28;20197;-75
2023/06/26 01:36:55;;;;;;;16.52;9.38;;;;;;;18.72;100.00;94342.41;5102144;28;20206;-74
2023/06/26 01:39:21;;;;;;;15.15;11.02;;;;;;;18.72;100.00;94342.41;5108268;28;20600;-74
2023/06/26 01:41:48;;;;;;;17.05;9.88;;;;;;;18.65;100.00;94334.13;5123952;28;20633;-74
2023/06/26 01:44:27;;;;;;;13.60;9.68;;;;;;;18.59;100.00;94338.41;5125555;28;20185;-74
2023/06/26 01:47:01;;;;;;;18.45;9.50;;;;;;;18.61;100.00;94341.53;5110057;28;20242;-74
2023/06/26 01:49:38;;;;;;;15.98;10.75;;;;;;;18.51;100.00;94331.28;5109823;28;20562;-75
2023/06/26 01:52:10;;;;;;;14.55;10.40;;;;;;;18.46;100.00;94330.47;5109379;28;20190;-75
2023/06/26 01:54:50;;;;;;;18.80;10.30;;;;;;;18.45;100.00;94339.09;5109708;28;20197;-75
2023/06/26 01:57:19;;;;;;;14.20;10.50;;;;;;;18.50;100.00;94338.72;5109627;28;20220;-75
2023/06/26 01:59:48;;;;;;;14.35;8.93;;;;;;;18.51;100.00;94332.06;5109417;28;20681;-73
2023/06/26 02:02:15;;;;;;;13.93;9.88;;;;;;;18.58;100.00;94339.56;5114501;27;20228;-74
2023/06/26 02:04:42;;;;;;;16.13;9.93;;;;;;;18.58;100.00;94336.81;5108210;28;20206;-74
2023/06/26 02:07:10;;;;;;;17.38;10.75;;;;;;;18.63;100.00;94333.72;5127001;27;20564;-74
2023/06/26 02:09:36;;;;;;;16.02;10.23;;;;;;;18.66;100.00;94338.44;5113399;28;20555;-75
2023/06/26 02:12:03;;;;;;;16.05;10.30;;;;;;;18.61;100.00;94336.06;5127040;27;20246;-74
2023/06/26 02:14:30;;;;;;;16.10;10.93;;;;;;;18.57;100.00;94329.75;5113156;28;20198;-75
2023/06/26 02:17:00;;;;;;;16.00;10.45;;;;;;;18.59;100.00;94335.66;5117194;27;20204;-75
2023/06/26 02:19:27;;;;;;;15.88;11.30;;;;;;;18.62;100.00;94337.63;5122805;27;20198;-75
2023/06/26 02:21:55;;;;;;;14.52;9.15;;;;;;;18.64;100.00;94332.56;5121886;27;20221;-74
2023/06/26 02:24:22;;;;;;;16.83;9.98;;;;;;;18.68;100.00;94331.41;5125773;27;20604;-75
2023/06/26 02:26:49;;;;;;;15.38;10.98;;;;;;;18.71;100.00;94340.81;5121900;27;20194;-75
2023/06/26 02:29:16;;;;;;;15.13;10.82;;;;;;;18.74;100.00;94337.28;5107098;27;20607;-75
2023/06/26 02:31:43;;;;;;;17.40;12.27;;;;;;;18.79;100.00;94342.41;5114118;27;20260;-73
2023/06/26 02:34:11;;;;;;;16.92;10.73;;;;;;;18.78;100.00;94341.63;5120897;27;20201;-74
2023/06/26 02:36:37;;;;;;;18.20;11.23;;;;;;;18.80;100.00;94344.78;5126684;27;20194;-74
2023/06/26 02:39:04;;;;;;;17.10;11.35;;;;;;;18.81;100.00;94340.84;5117367;27;20717;-74
2023/06/26 02:41:31;;;;;;;19.98;10.57;;;;;;;18.72;100.00;94339.66;5099948;28;20233;-75
2023/06/26 02:43:58;;;;;;;20.67;12.00;;;;;;;18.71;100.00;94340.81;5106992;27;20229;-75
2023/06/26 02:46:25;;;;;;;17.63;11.98;;;;;;;18.63;100.00;94344.69;5108872;27;20690;-74
2023/06/26 02:48:51;;;;;;;18.80;12.30;;;;;;;18.61;100.00;94338.81;5108335;27;20194;-74
2023/06/26 02:51:20;;;;;;;16.50;12.02;;;;;;;18.62;100.00;94334.88;5108199;27;20202;-74
2023/06/26 02:53:46;;;;;;;18.08;12.27;;;;;;;18.70;100.00;94351.00;5099562;27;20249;-75
2023/06/26 02:56:13;;;;;;;16.98;12.02;;;;;;;18.70;100.00;94342.00;5109903;27;20228;-74
2023/06/26 02:58:40;;;;;;;17.52;11.45;;;;;;;18.74;100.00;94340.81;5108828;27;20254;-74
2023/06/26 03:01:07;;;;;;;16.23;12.00;;;;;;;18.76;100.00;94348.66;5103663;28;20190;-75
2023/06/26 03:03:40;;;;;;;18.08;12.38;;;;;;;18.74;100.00;94345.53;5112054;28;20600;-75
2023/06/26 03:06:07;;;;;;;18.23;12.77;;;;;;;18.69;100.00;94349.44;5112326;28;20633;-75
2023/06/26 03:08:38;;;;;;;20.23;12.63;;;;;;;18.66;100.00;94352.16;5099979;27;20670;-74
2023/06/26 03:11:05;;;;;;;18.77;12.30;;;;;;;18.60;100.00;94356.44;5112002;27;20186;-75
2023/06/26 03:13:32;;;;;;;19.13;13.27;;;;;;;18.64;100.00;94354.50;5125165;27;20206;-74
2023/06/26 03:15:59;;;;;;;21.48;12.93;;;;;;;18.71;100.00;94349.84;5123385;27;20683;-75
2023/06/26 03:18:26;;;;;;;21.42;12.63;;;;;;;18.78;100.00;94349.06;5115983;27;20190;-75
2023/06/26 03:20:54;;;;;;;20.00;13.27;;;;;;;19.06;99.19;94351.91;5112837;27;20191;-75
2023/06/26 03:23:21;;;;;;;17.52;11.70;;;;;;;19.43;96.53;94353.53;5108523;28;20237;-75
2023/06/26 03:25:50;;;;;;;14.90;11.10;;;;;;;19.73;94.42;94345.75;5122238;27;20668;-75
2023/06/26 03:28:17;;;;;;;15.68;11.55;;;;;;;19.58;94.12;94341.44;5118633;27;20698;-75
2023/06/26 03:30:44;;;;;;;16.98;11.88;;;;;;;19.56;94.09;94341.03;5121110;27;20201;-75
2023/06/26 03:33:11;;;;;;;17.30;12.73;;;;;;;19.26;95.03;94348.84;5105377;28;20209;-75
2023/06/26 03:35:38;;;;;;;17.70;12.38;;;;;;;19.23;95.78;94353.13;5103259;28;20258;-75
2023/06/26 03:38:05;;;;;;;20.77;12.65;;;;;;;19.18;96.01;94354.28;5111928;28;20194;-75
2023/06/26 03:40:32;;;;;;;16.80;11.82;;;;;;;19.06;97.11;94351.13;5110778;28;20205;-75
2023/06/26 03:43:00;;;;;;;18.73;12.43;;;;;;;18.96;97.62;94358.16;5091867;28;20299;-74
2023/06/26 03:45:27;;;;;;;18.77;13.35;;;;;;;18.88;98.04;94356.56;5102944;28;20682;-74
2023/06/26 03:47:54;;;;;;;19.00;13.77;;;;;;;18.82;98.43;94358.13;5096972;28;20804;-74
2023/06/26 03:50:21;;;;;;;19.23;12.77;;;;;;;18.77;98.79;94350.25;5098664;28;20213;-75
2023/06/26 03:52:47;;;;;;;18.45;13.35;;;;;;;18.77;99.15;94351.03;5108198;28;20255;-75
2023/06/26 03:55:14;;;;;;;17.88;13.32;;;;;;;18.79;98.65;94353.38;5098641;28;20210;-74
2023/06/26 03:57:41;;;;;;;17.17;10.75;;;;;;;18.77;99.17;94353.00;5103740;28;20221;-75
2023/06/26 04:00:12;;;;;;;17.38;11.80;;;;;;;18.82;98.71;94352.63;5103988;28;20201;-77
2023/06/26 04:02:39;;;;;;;19.77;12.88;;;;;;;19.05;98.21;94352.28;5110161;28;20279;-76
2023/06/26 04:05:06;;;;;;;17.63;12.43;;;;;;;19.34;96.18;94355.91;5103482;28;20221;-75
2023/06/26 04:07:34;;;;;;;17.02;11.98;;;;;;;20.28;90.66;94334.31;5096544;28;20202;-75
2023/06/26 04:10:01;;;;;;;16.23;12.32;;;;;;;20.85;87.17;94339.66;5110574;28;20206;-75
2023/06/26 04:12:28;;;;;;;17.45;11.32;;;;;;;21.84;81.96;94330.81;5098606;28;20221;-74
2023/06/26 04:14:55;;;;;;;15.07;10.98;;;;;;;22.05;80.51;94337.34;5103852;28;20198;-75
2023/06/26 04:17:23;;;;;;;15.98;11.18;;;;;;;22.24;80.09;94337.56;5096652;28;20565;-74
2023/06/26 04:19:50;;;;;;;16.50;12.77;;;;;;;21.84;80.94;94341.84;5107385;28;20516;-74
2023/06/26 04:22:17;;;;;;;15.70;11.13;;;;;;;22.32;79.25;94339.06;5096524;28;20225;-75
2023/06/26 04:24:45;;;;;;;14.13;10.85;;;;;;;23.23;75.20;94335.66;5095064;28;20213;-72
2023/06/26 04:27:13;;;;;;;15.10;13.48;;;;;;;24.11;71.89;94338.28;5097339;28;20198;-75
2023/06/26 04:29:40;;;;;;;13.07;11.68;;;;;;;23.91;70.59;94324.41;5096508;28;20613;-74
2023/06/26 04:32:07;;;;;;;13.35;11.75;;;;;;;23.12;73.42;94337.78;5102726;28;20262;-74
2023/06/26 04:34:36;;;;;;;13.48;9.27;;;;;;;22.65;75.21;94345.81;5096114;28;20206;-75
2023/06/26 04:37:04;;;;;;;14.68;9.48;;;;;;;22.79;75.50;94344.13;5110197;28;20197;-75
2023/06/26 04:39:31;;;;;;;15.32;12.30;;;;;;;23.68;72.79;94352.81;5096512;27;20202;-75
2023/06/26 04:41:58;;;;;;;14.77;12.27;;;;;;;24.22;70.08;94354.72;5101132;28;20199;-75
2023/06/26 04:44:25;;;;;;;14.02;11.82;;;;;;;24.21;70.41;94348.41;5093008;28;20214;-74
2023/06/26 04:46:52;;;;;;;13.00;9.85;;;;;;;23.48;72.37;94351.13;5110108;28;20197;-74
2023/06/26 04:49:22;;;;;;;14.27;10.60;;;;;;;24.57;70.23;94351.34;5106657;28;20285;-74
2023/06/26 04:51:50;;;;;;;11.20;9.77;;;;;;;23.94;70.57;94356.75;5099921;28;20339;-72
2023/06/26 04:54:17;;;;;;;13.48;9.45;;;;;;;23.63;72.11;94352.50;5106051;28;20285;-75
2023/06/26 04:56:46;;;;;;;13.48;11.77;;;;;;;23.36;72.97;94350.50;5108835;28;20225;-75
2023/06/26 04:59:14;;;;;;;15.35;12.90;;;;;;;23.03;73.52;94354.06;5111306;27;20284;-74
2023/06/26 05:01:41;;;;;;;13.93;12.27;;;;;;;22.80;75.08;94356.75;5109065;28;20228;-73
2023/06/26 05:04:08;;;;;;;14.40;10.15;;;;;;;23.05;75.36;94354.44;5108238;28;20225;-74
2023/06/26 05:06:35;;;;;;;13.52;9.73;;;;;;;23.37;73.59;94346.50;5106576;28;20206;-74
2023/06/26 05:09:03;;;;;;;18.55;10.75;;;;;;;23.69;71.78;94351.59;5105281;28;20199;-75
2023/06/26 05:11:30;;;;;;;14.80;12.98;;;;;;;24.21;71.37;94355.91;5088941;28;20202;-74
2023/06/26 05:13:56;;;;;;;14.80;12.02;;;;;;;23.74;71.76;94364.19;5107829;28;20262;-75
2023/06/26 05:16:23;;;;;;;15.32;12.43;;;;;;;22.99;74.64;94364.38;5108437;28;20661;-74
2023/06/26 05:18:50;;;;;;;15.70;10.68;;;;;;;22.69;76.56;94365.88;5106358;28;20193;-73
2023/06/26 05:21:17;;;;;;;14.00;10.05;;;;;;;22.11;78.23;94371.59;5109194;28;20254;-74
2023/06/26 05:23:46;;;;;;;16.55;11.15;;;;;;;21.69;80.41;94378.97;5109108;28;20240;-73
2023/06/26 05:26:14;;;;;;;15.07;9.95;;;;;;;21.64;80.16;94387.66;5106963;28;20721;-75
2023/06/26 05:28:44;;;;;;;14.88;10.00;;;;;;;;;;5105806;28;20197;-73
2023/06/26 05:31:11;;;;;;;13.02;10.32;;;;;;;21.63;80.52;94386.88;5109076;28;20201;-74
2023/06/26 05:33:39;;;;;;;14.63;10.15;;;;;;;22.12;78.53;94378.69;5089296;28;20205;-74
2023/06/26 05:36:08;;;;;;;17.08;12.90;;;;;;;22.11;79.52;94377.91;5090054;28;20257;-75
2023/06/26 05:38:35;;;;;;;16.98;12.88;;;;;;;21.75;79.27;94382.88;5099442;28;20668;-71
2023/06/26 05:41:03;;;;;;;14.75;12.63;;;;;;;21.28;82.03;94387.91;5113577;28;20262;-74
2023/06/26 05:43:31;;;;;;;14.32;10.45;;;;;;;21.39;81.94;94384.28;5099339;28;20707;-70
2023/06/26 05:45:58;;;;;;;13.57;10.38;;;;;;;21.42;82.07;94386.25;5113287;28;20649;-74
2023/06/26 05:48:25;;;;;;;15.65;10.45;;;;;;;21.62;81.00;94390.03;5122978;27;20239;-74
2023/06/26 05:50:52;;;;;;;14.20;9.50;;;;;;;21.81;80.31;94380.47;5101020;27;20202;-74
2023/06/26 05:53:20;;;;;;;14.20;10.93;;;;;;;21.69;81.13;94390.00;5097982;28;20201;-73
2023/06/26 05:55:47;;;;;;;15.75;13.10;;;;;;;21.46;81.80;94389.75;5106503;28;20218;-73
2023/06/26 05:58:15;;;;;;;17.75;10.82;;;;;;;21.83;81.29;94391.88;5112731;28;20287;-73
2023/06/26 06:00:44;;;;;;;13.43;9.48;;;;;;;22.63;77.94;94370.28;5101020;28;20194;-73
2023/06/26 06:03:11;;;;;;;13.13;10.13;;;;;;;22.36;77.81;94385.94;5101741;28;20312;-75
2023/06/26 06:05:38;;;;;;;13.35;10.05;;;;;;;22.52;76.78;94391.72;5101712;28;20194;-73
2023/06/26 06:08:05;;;;;;;17.23;10.48;;;;;;;23.13;74.36;94386.31;5103376;28;20197;-76
2023/06/26 06:10:32;;;;;;;12.88;9.60;;;;;;;24.03;71.06;94381.94;5103176;28;20358;-76
2023/06/26 06:12:58;;;;;;;14.02;8.23;;;;;;;24.49;68.95;94374.84;5102128;28;20194;-77
2023/06/26 06:15:25;;;;;;;10.20;8.85;;;;;;;26.18;63.63;94375.28;5099788;28;20474;-76
2023/06/26 06:17:53;;;;;;;10.60;8.65;;;;;;;25.76;64.20;94371.50;5102081;28;20256;-77
2023/06/26 06:20:21;;;;;;;14.15;10.48;;;;;;;24.94;65.82;94372.44;5103681;28;20263;-77
2023/06/26 06:22:48;;;;;;;12.05;10.57;;;;;;;25.26;64.68;94382.91;5101518;28;20276;-74
2023/06/26 06:25:15;;;;;;;13.35;10.32;;;;;;;25.61;63.89;94375.00;5102540;27;20208;-77
2023/06/26 06:27:42;;;;;;;12.35;10.05;;;;;;;26.06;62.96;94369.63;5102169;28;20199;-75
2023/06/26 06:30:10;;;;;;;11.48;10.07;;;;;;;25.12;64.50;94372.88;5101956;28;20342;-75
2023/06/26 06:32:37;;;;;;;15.23;10.52;;;;;;;24.96;66.41;94364.50;5099719;28;20251;-76
2023/06/26 06:35:09;;;;;;;15.00;10.07;;;;;;;24.73;66.93;94373.63;5100966;28;20232;-77
2023/06/26 06:37:37;;;;;;;11.55;10.32;;;;;;;24.39;69.43;94376.59;5101004;28;20190;-77
2023/06/26 06:40:05;;;;;;;11.68;9.98;;;;;;;25.07;66.90;94372.59;5102455;28;20198;-77
2023/06/26 06:42:33;;;;;;;13.73;8.73;;;;;;;24.99;65.49;94373.94;5102173;28;20240;-77
2023/06/26 06:45:00;;;;;;;10.75;8.48;;;;;;;24.87;66.76;94371.78;5109910;28;20213;-77
2023/06/26 06:47:26;;;;;;;11.93;10.30;;;;;;;26.52;63.05;94366.50;5108033;28;20198;-77
2023/06/26 06:49:53;;;;;;;11.02;9.43;;;;;;;27.89;57.47;94365.03;5100271;28;20247;-74
2023/06/26 06:52:21;;;;;;;11.70;9.50;;;;;;;26.84;59.01;94365.66;5099295;28;20214;-77
2023/06/26 06:54:55;;;;;;;11.10;9.32;;;;;;;25.79;62.48;94380.97;5103325;28;20230;-75
2023/06/26 06:57:22;;;;;;;11.65;10.15;;;;;;;26.62;60.33;94361.91;5104789;28;20234;-74
2023/06/26 06:59:49;;;;;;;10.32;8.88;;;;;;;27.47;58.12;94361.53;5102273;28;20194;-75
2023/06/26 07:02:20;;;;;;;9.45;8.27;;;;;;;29.38;52.56;94354.44;5102389;27;20194;-74
2023/06/26 07:04:47;;;;;;;10.45;8.40;;;;;;;28.23;54.90;94351.25;5101514;28;20214;-75
2023/06/26 07:07:14;;;;;;;11.20;8.65;;;;;;;27.36;56.39;94361.84;5102548;28;20717;-77
2023/06/26 07:09:42;;;;;;;8.80;7.75;;;;;;;26.53;58.56;94356.94;5101494;28;20724;-74
2023/06/26 07:12:09;;;;;;;9.38;7.72;;;;;;;26.53;58.88;94367.28;5100842;28;20209;-77
2023/06/26 07:14:36;;;;;;;11.18;8.82;;;;;;;27.35;56.85;94353.94;5101649;28;20255;-75
2023/06/26 07:17:03;;;;;;;10.98;7.97;;;;;;;28.89;53.89;94349.41;5109346;27;20201;-76
2023/06/26 07:19:30;;;;;;;9.25;7.90;;;;;;;28.65;54.19;94349.03;5111174;28;20209;-77
2023/06/26 07:21:56;;;;;;;10.43;6.53;;;;;;;28.33;52.45;94356.91;5098580;28;20268;-76
2023/06/26 07:24:23;;;;;;;7.55;6.20;;;;;;;26.20;57.56;94361.75;5102863;28;20633;-76
2023/06/26 07:26:51;;;;;;;6.57;5.85;;;;;;;27.02;54.79;94362.44;5105112;28;20202;-77
2023/06/26 07:29:18;;;;;;;7.53;6.30;;;;;;;28.73;52.84;94349.53;5098725;28;20569;-76
2023/06/26 07:31:45;;;;;;;8.20;6.40;;;;;;;26.50;56.27;94357.06;5103910;27;20210;-73
2023/06/26 07:34:12;;;;;;;6.85;6.15;;;;;;;25.94;58.03;94365.56;5102828;28;20206;-76
2023/06/26 07:36:39;;;;;;;7.10;6.13;;;;;;;27.04;55.97;94356.44;5103564;27;20244;-75
2023/06/26 07:39:08;;;;;;;8.32;6.60;;;;;;;27.83;53.94;94356.47;5104277;27;20202;-76
2023/06/26 07:41:35;;;;;;;7.88;6.07;;;;;;;26.66;55.05;94359.78;5090764;28;20301;-76
2023/06/26 07:44:03;;;;;;;6.53;5.82;;;;;;;27.91;53.58;94354.25;5105687;27;20241;-77
2023/06/26 07:46:30;;;;;;;8.55;6.65;;;;;;;27.98;54.10;94351.25;5105027;27;20341;-76
2023/06/26 07:48:57;;;;;;;8.40;7.05;;;;;;;27.03;54.66;94354.88;5103385;27;20213;-74
2023/06/26 07:51:23;;;;;;;8.10;5.93;;;;;;;27.05;55.05;94361.56;5094289;28;20267;-72
2023/06/26 07:53:50;;;;;;;7.20;6.50;;;;;;;26.25;57.35;94367.97;5105417;28;20597;-77
2023/06/26 07:56:17;;;;;;;6.95;6.22;;;;;;;26.39;56.80;94362.09;5102214;28;20670;-78
2023/06/26 07:58:44;;;;;;;5.03;4.50;;;;;;;27.60;51.72;94356.81;5090789;28;20279;-78
2023/06/26 08:01:12;;;;;;;6.70;5.65;;;;;;;28.91;51.15;94349.72;5090592;28;20217;-74
2023/06/26 08:03:39;;;;;;;7.28;5.60;;;;;;;29.23;49.71;94353.38;5091375;28;20230;-75
2023/06/26 08:06:06;;;;;;;9.13;6.40;;;;;;;28.50;50.41;94358.31;5106555;28;20556;-75
2023/06/26 08:08:33;;;;;;;7.40;5.60;;;;;;;29.19;49.25;94358.31;5109451;28;20202;-77
2023/06/26 08:11:00;;;;;;;6.20;5.07;;;;;;;28.68;48.75;94352.91;5102357;28;20606;-77
2023/06/26 08:13:26;;;;;;;7.25;5.55;;;;;;;27.76;51.37;94350.34;5109704;28;20674;-78
2023/06/26 08:15:53;;;;;;;7.20;5.38;;;;;;;28.42;51.58;94348.66;5108680;28;20239;-74
2023/06/26 08:18:21;;;;;;;6.28;5.68;;;;;;;27.55;53.83;94351.75;5103504;28;20729;-78
2023/06/26 08:20:48;;;;;;;5.50;4.68;;;;;;;27.78;51.12;94359.03;5098044;28;20205;-75
2023/06/26 08:23:15;;;;;;;6.45;5.05;;;;;;;28.10;49.16;94347.66;5103626;28;20209;-77
2023/06/26 08:25:43;;;;;;;6.25;5.65;;;;;;;27.23;53.65;94344.34;5110935;28;20225;-77
2023/06/26 08:28:09;;;;;;;9.18;6.03;;;;;;;26.31;56.48;94347.63;5120150;27;20206;-76
2023/06/26 08:30:36;;;;;;;7.05;5.47;;;;;;;26.01;56.52;94370.94;5099239;28;20213;-76
2023/06/26 08:33:03;;;;;;;7.82;5.60;;;;;;;25.52;57.63;94372.06;5110308;28;20206;-76
2023/06/26 08:35:31;;;;;;;7.93;6.47;;;;;;;26.19;58.57;94367.72;5120601;27;20197;-75
2023/06/26 08:37:58;;;;;;;7.93;6.00;;;;;;;26.61;54.40;94363.13;5114812;27;20197;-72
2023/06/26 08:40:26;;;;;;;6.90;6.22;;;;;;;26.59;55.41;94360.00;5114630;27;20316;-75
2023/06/26 08:42:53;;;;;;;6.93;6.18;;;;;;;26.35;56.91;94364.97;5109411;28;20228;-75
2023/06/26 08:45:20;;;;;;;6.18;5.18;;;;;;;26.89;56.30;94362.34;5103417;27;20320;-76
2023/06/26 08:47:55;;;;;;;6.25;5.38;;;;;;;27.31;54.20;94359.63;5102083;27;20583;-75
2023/06/26 08:50:24;;;;;;;7.88;5.93;;;;;;;26.44;55.94;94359.56;5106593;27;20242;-78
2023/06/26 08:52:57;;;;;;;6.28;5.53;;;;;;;25.81;56.87;94361.91;5090230;28;20230;-76
2023/06/26 08:55:27;;;;;;;4.72;4.28;;;;;;;26.18;56.00;94361.41;5100470;28;20208;-77
2023/06/26 08:57:54;;;;;;;5.18;4.57;;;;;;;26.65;53.13;94358.22;5100915;28;20206;-77
2023/06/26 09:00:21;;;;;;;8.60;4.53;;;;;;;26.38;53.15;94361.31;5101477;28;20198;-73
2023/06/26 09:02:48;;;;;;;6.85;5.07;;;;;;;25.55;56.33;94354.56;5106423;27;20284;-75
2023/06/26 09:05:15;;;;;;;6.68;5.10;;;;;;;25.94;56.89;94360.00;5122824;27;20797;-75
2023/06/26 09:07:44;;;;;;;6.05;4.97;;;;;;;25.97;55.99;94358.38;5100535;27;20259;-77
2023/06/26 09:10:12;;;;;;;7.40;4.35;;;;;;;26.75;52.22;94357.19;5101686;27;20531;-74
2023/06/26 09:12:40;;;;;;;6.78;4.90;;;;;;;27.03;52.46;94338.97;5097737;28;20290;-76
2023/06/26 09:15:07;;;;;;;6.25;5.35;;;;;;;27.20;54.16;94351.56;5101875;28;20205;-77
2023/06/26 09:17:40;;;;;;;8.48;5.40;;;;;;;27.07;54.87;94344.41;5105626;28;20201;-73
2023/06/26 09:20:10;;;;;;;6.82;4.90;;;;;;;27.25;52.06;94348.25;5105862;28;20202;-75
2023/06/26 09:22:39;;;;;;;6.75;5.18;;;;;;;27.16;53.54;94347.34;5106090;28;20208;-77
2023/06/26 09:25:07;;;;;;;6.65;5.80;;;;;;;28.54;51.09;94340.25;5106164;28;20316;-78
2023/06/26 09:27:35;;;;;;;6.97;5.13;;;;;;;28.29;50.92;94349.44;5108438;28;20652;-77
2023/06/26 09:30:03;;;;;;;5.22;4.72;;;;;;;27.85;49.49;94342.91;5107734;28;20595;-73
2023/06/26 09:32:30;;;;;;;5.10;4.60;;;;;;;27.80;50.63;94345.44;5120367;28;20284;-74
2023/06/26 09:34:57;;;;;;;6.07;4.70;;;;;;;28.36;51.01;94336.50;5093323;28;20205;-75
2023/06/26 09:37:24;;;;;;;7.72;4.97;;;;;;;27.91;51.37;94341.09;5088673;28;20711;-74
2023/06/26 09:39:52;;;;;;;4.65;4.20;;;;;;;27.03;52.73;94346.53;5094161;28;20261;-70
2023/06/26 09:42:20;;;;;;;7.38;4.95;;;;;;;26.87;53.89;94348.13;5108968;28;20233;-77
2023/06/26 09:44:48;;;;;;;9.50;5.72;;;;;;;27.17;52.68;94348.91;5122725;28;20587;-76
2023/06/26 09:47:18;;;;;;;6.05;5.15;;;;;;;27.27;52.74;94336.69;5109446;28;20258;-75
2023/06/26 09:49:45;;;;;;;6.20;5.35;;;;;;;26.27;53.94;94349.66;5109470;28;20225;-74
2023/06/26 09:52:16;;;;;;;6.45;5.57;;;;;;;25.46;55.82;94353.13;5108760;28;20214;-72
2023/06/26 09:54:44;;;;;;;6.80;5.53;;;;;;;24.76;58.61;94353.34;5117570;28;20272;-75
2023/06/26 09:57:12;;;;;;;8.90;5.45;;;;;;;25.74;57.10;94350.97;5098577;28;20412;-75
2023/06/26 09:59:40;;;;;;;6.20;4.90;;;;;;;26.34;54.10;94348.75;5097927;28;20729;-76
2023/06/26 10:02:10;;;;;;;6.55;4.90;;;;;;;27.14;51.27;94344.22;5108796;28;20289;-74
2023/06/26 10:04:37;;;;;;;5.85;4.80;;;;;;;26.77;51.93;94349.19;5108526;28;20603;-77
2023/06/26 10:07:07;;;;;;;6.40;5.10;;;;;;;26.84;52.27;94337.88;5108634;28;20302;-74
2023/06/26 10:09:37;;;;;;;7.95;5.32;;;;;;;27.08;50.55;94340.41;5108402;28;20205;-74
2023/06/26 10:12:07;;;;;;;10.32;5.22;;;;;;;27.09;51.89;94339.19;5111212;28;20262;-77
2023/06/26 10:14:36;;;;;;;7.47;5.30;;;;;;;26.92;50.70;94346.03;5117964;28;20206;-74
2023/06/26 10:17:07;;;;;;;5.65;5.13;;;;;;;26.29;52.50;94343.72;5108727;28;20209;-76
2023/06/26 10:19:38;;;;;;;5.55;4.70;;;;;;;26.23;52.77;94346.22;5104786;28;20429;-71
2023/06/26 10:22:06;;;;;;;7.38;4.97;;;;;;;25.96;52.39;94346.47;5108576;28;20202;-74
2023/06/26 10:24:36;;;;;;;10.10;5.28;;;;;;;26.28;54.77;94344.88;5111432;28;20236;-75
2023/06/26 10:27:09;;;;;;;5.25;4.38;;;;;;;25.90;53.02;94348.19;5112024;28;20210;-73
2023/06/26 10:29:37;;;;;;;7.03;4.50;;;;;;;25.36;53.55;94342.28;5124227;27;20219;-71
2023/06/26 10:32:07;;;;;;;7.15;4.80;;;;;;;25.07;55.00;94353.97;5092073;28;20213;-76
2023/06/26 10:34:35;;;;;;;10.35;5.13;;;;;;;25.18;55.20;94347.41;5109233;27;20564;-75
2023/06/26 10:37:04;;;;;;;6.35;4.78;;;;;;;24.98;53.86;94344.66;5120624;27;20204;-75
2023/06/26 10:39:48;;;;;;;6.70;5.30;;;;;;;24.79;55.23;94349.75;5099618;27;20203;-77
2023/06/26 10:42:16;;;;;;;7.57;5.00;;;;;;;24.65;55.81;94344.47;5092255;27;20715;-75
2023/06/26 10:44:44;;;;;;;5.88;5.07;;;;;;;24.12;56.92;94345.41;5105043;27;20282;-74
2023/06/26 10:47:11;;;;;;;6.13;5.15;;;;;;;24.40;55.75;94338.59;5124838;27;20284;-71
2023/06/26 10:49:40;;;;;;;7.28;4.85;;;;;;;24.35;55.81;94347.41;5118911;27;20232;-75
2023/06/26 10:52:07;;;;;;;6.57;4.68;;;;;;;24.54;55.77;94345.88;5120310;27;20296;-78
2023/06/26 10:54:34;;;;;;;8.02;5.32;;;;;;;24.66;55.77;94332.19;5111765;28;20209;-74
2023/06/26 10:57:03;;;;;;;9.02;5.43;;;;;;;24.96;55.31;94330.44;5112018;28;20291;-75
2023/06/26 10:59:31;;;;;;;7.28;5.43;;;;;;;24.84;55.50;94336.59;5111608;28;20209;-76
2023/06/26 11:01:59;;;;;;;8.25;5.20;;;;;;;24.95;55.77;94332.44;5111902;28;20721;-77
2023/06/26 11:04:46;;;;;;;8.40;6.05;;;;;;;24.61;56.06;94332.66;5111664;28;20704;-71
2023/06/26 11:07:20;;;;;;;8.02;5.47;;;;;;;24.47;56.94;94337.69;5122158;27;20206;-76
2023/06/26 11:09:59;;;;;;;9.50;6.03;;;;;;;24.79;56.45;94333.09;5101017;28;20197;-75
2023/06/26 11:12:42;;;;;;;5.80;5.20;;;;;;;24.68;56.59;94327.00;5091694;28;20198;-73
2023/06/26 11:15:11;;;;;;;7.70;5.22;;;;;;;24.74;55.36;94330.81;5059070;28;20206;-73
2023/06/26 11:17:38;;;;;;;9.68;4.85;;;;;;;25.20;54.11;94331.91;5111390;28;20213;-75
2023/06/26 11:20:09;;;;;;;6.40;4.82;;;;;;;25.31;54.01;94329.69;5109927;28;20198;-75
2023/06/26 11:22:38;;;;;;;5.93;4.68;;;;;;;25.43;53.42;94323.47;5122253;27;20199;-73
2023/06/26 11:25:06;;;;;;;6.53;5.05;;;;;;;25.10;54.44;94324.59;5118652;27;20231;-76